createdAt,value
2017-04-08T00:00:24.125Z,99.99
2017-04-08T00:01:35.128Z,99.99
2017-04-08T00:02:46.125Z,99.99
2017-04-08T00:03:57.182Z,99.99
2017-04-08T00:05:08.179Z,99.99
2017-04-08T00:06:19.177Z,99.99
2017-04-08T00:07:30.167Z,99.99
2017-04-08T00:08:41.169Z,99.99
2017-04-08T00:09:52.415Z,99.99
2017-04-08T00:11:03.418Z,99.99
2017-04-08T00:12:14.422Z,99.99
2017-04-08T00:13:25.430Z,99.99
2017-04-08T00:14:36.433Z,99.99
2017-04-08T00:15:47.441Z,99.99
2017-04-08T00:16:58.448Z,99.99
2017-04-08T00:18:09.460Z,99.99
2017-04-08T00:19:20.687Z,99.99
2017-04-08T00:20:31.746Z,99.99
2017-04-08T00:21:42.743Z,99.99
2017-04-08T00:22:53.741Z,99.99
2017-04-08T00:24:04.939Z,99.99
2017-04-08T00:25:15.977Z,99.99
2017-04-08T00:26:27.231Z,99.99
2017-04-08T00:27:38.241Z,99.99
2017-04-08T00:28:49.446Z,99.99
2017-04-08T00:30:00.448Z,99.99
2017-04-08T00:31:11.678Z,99.99
2017-04-08T00:32:22.741Z,99.99
2017-04-08T00:33:33.744Z,99.99
2017-04-08T00:34:44.982Z,99.99
2017-04-08T00:35:56.009Z,99.99
2017-04-08T00:37:07.018Z,99.99
2017-04-08T00:38:18.270Z,99.99
2017-04-08T00:39:29.280Z,99.99
2017-04-08T00:40:40.293Z,99.99
2017-04-08T00:41:51.292Z,99.99
2017-04-08T00:43:02.289Z,99.99
2017-04-08T00:44:13.537Z,99.99
2017-04-08T00:45:24.545Z,99.99
2017-04-08T00:46:35.550Z,99.99
2017-04-08T00:47:46.561Z,99.99
2017-04-08T00:48:57.570Z,99.99
2017-04-08T00:50:08.614Z,99.99
2017-04-08T00:51:19.620Z,99.99
2017-04-08T00:52:30.835Z,99.99
2017-04-08T00:53:41.847Z,99.99
2017-04-08T00:54:52.852Z,99.99
2017-04-08T00:56:03.905Z,99.99
2017-04-08T00:57:14.913Z,99.99
2017-04-08T00:58:25.919Z,99.99
2017-04-08T00:59:36.913Z,99.99
2017-04-08T01:00:47.908Z,99.99
2017-04-08T01:01:58.969Z,99.99
2017-04-08T01:03:09.962Z,99.99
2017-04-08T01:04:20.971Z,99.99
2017-04-08T01:05:31.981Z,99.99
2017-04-08T01:06:42.987Z,99.99
2017-04-08T01:07:54.457Z,99.99
2017-04-08T01:09:05.469Z,99.99
2017-04-08T01:10:16.472Z,99.99
2017-04-08T01:11:27.463Z,99.99
2017-04-08T01:12:38.457Z,99.99
2017-04-08T01:13:49.724Z,99.99
2017-04-08T01:15:00.742Z,99.99
2017-04-08T01:16:11.744Z,99.99
2017-04-08T01:17:22.744Z,99.99
2017-04-08T01:18:33.761Z,99.99
2017-04-08T01:19:45.055Z,99.99
2017-04-08T01:20:56.059Z,99.99
2017-04-08T01:22:07.061Z,99.99
2017-04-08T01:23:18.064Z,99.99
2017-04-08T01:24:29.063Z,99.99
2017-04-08T01:25:40.113Z,99.99
2017-04-08T01:26:51.120Z,99.99
2017-04-08T01:28:02.326Z,99.99
2017-04-08T01:29:13.523Z,99.99
2017-04-08T01:30:24.566Z,99.99
2017-04-08T01:31:36.025Z,99.99
2017-04-08T01:32:47.021Z,99.99
2017-04-08T01:33:58.018Z,99.99
2017-04-08T01:35:09.031Z,99.99
2017-04-08T01:36:20.238Z,99.99
2017-04-08T01:37:31.293Z,99.99
2017-04-08T01:38:42.298Z,99.99
2017-04-08T01:39:53.302Z,99.99
2017-04-08T01:41:04.316Z,99.99
2017-04-08T01:42:15.303Z,99.99
2017-04-08T01:43:26.368Z,99.99
2017-04-08T01:44:37.379Z,99.99
2017-04-08T01:45:48.400Z,99.99
2017-04-08T01:46:59.395Z,99.99
2017-04-08T01:48:10.597Z,99.99
2017-04-08T01:49:21.665Z,99.99
2017-04-08T01:50:33.064Z,99.99
2017-04-08T01:51:44.066Z,99.99
2017-04-08T01:52:55.085Z,99.99
2017-04-08T01:54:06.087Z,99.99
2017-04-08T01:55:17.139Z,99.99
2017-04-08T01:56:28.135Z,99.99
2017-04-08T01:57:39.335Z,99.99
2017-04-08T01:58:50.351Z,99.99
2017-04-08T02:00:01.357Z,99.99
2017-04-08T02:01:12.416Z,99.99
2017-04-08T02:02:23.417Z,99.99
2017-04-08T02:03:34.421Z,99.99
2017-04-08T02:04:45.425Z,99.99
2017-04-08T02:05:56.621Z,99.99
2017-04-08T02:07:07.715Z,99.99
2017-04-08T02:08:18.722Z,99.99
2017-04-08T02:09:29.732Z,99.99
2017-04-08T02:10:40.746Z,99.99
2017-04-08T02:11:51.758Z,99.99
2017-04-08T02:13:02.799Z,99.99
2017-04-08T02:14:13.802Z,99.99
2017-04-08T02:15:24.813Z,99.99
2017-04-08T02:16:35.822Z,99.99
2017-04-08T02:17:46.831Z,99.99
2017-04-08T02:18:57.891Z,99.99
2017-04-08T02:20:08.893Z,99.99
2017-04-08T02:21:19.888Z,99.99
2017-04-08T02:22:30.887Z,99.99
2017-04-08T02:23:41.888Z,99.99
2017-04-08T02:24:52.935Z,99.99
2017-04-08T02:26:03.940Z,99.99
2017-04-08T02:27:15.137Z,99.99
2017-04-08T02:28:26.344Z,99.99
2017-04-08T02:29:37.550Z,99.99
2017-04-08T02:30:48.753Z,99.99
2017-04-08T02:31:59.753Z,99.99
2017-04-08T02:33:10.757Z,99.99
2017-04-08T02:34:21.955Z,99.99
2017-04-08T02:35:33.415Z,99.99
2017-04-08T02:36:44.425Z,99.99
2017-04-08T02:37:55.429Z,99.99
2017-04-08T02:39:06.631Z,99.99
2017-04-08T02:40:17.622Z,99.99
2017-04-08T02:41:28.877Z,99.99
2017-04-08T02:42:39.865Z,99.99
2017-04-08T02:43:50.865Z,99.99
2017-04-08T02:45:01.864Z,99.99
2017-04-08T02:46:12.854Z,99.99
2017-04-08T02:47:24.105Z,99.99
2017-04-08T02:48:35.298Z,99.99
2017-04-08T02:49:46.300Z,99.99
2017-04-08T02:50:57.311Z,99.99
2017-04-08T02:52:08.325Z,99.99
2017-04-08T02:53:19.367Z,99.99
2017-04-08T02:54:30.361Z,99.99
2017-04-08T02:55:41.989Z,99.99
2017-04-08T02:56:52.999Z,99.99
2017-04-08T02:58:03.997Z,99.99
2017-04-08T02:59:15.059Z,99.99
2017-04-08T03:00:26.250Z,99.99
2017-04-08T03:01:37.249Z,99.99
2017-04-08T03:02:48.257Z,99.99
2017-04-08T03:03:59.258Z,99.99
2017-04-08T03:05:10.720Z,99.99
2017-04-08T03:06:21.935Z,99.99
2017-04-08T03:07:32.932Z,99.99
2017-04-08T03:08:43.943Z,99.99
2017-04-08T03:09:55.140Z,99.99
2017-04-08T03:11:06.397Z,99.99
2017-04-08T03:12:17.395Z,99.99
2017-04-08T03:13:28.393Z,99.99
2017-04-08T03:14:39.391Z,99.99
2017-04-08T03:15:50.587Z,99.99
2017-04-08T03:17:01.837Z,99.99
2017-04-08T03:18:12.839Z,99.99
2017-04-08T03:19:23.830Z,99.99
2017-04-08T03:20:34.828Z,99.99
2017-04-08T03:21:45.832Z,99.99
2017-04-08T03:22:57.079Z,99.99
2017-04-08T03:24:08.092Z,99.99
2017-04-08T03:25:19.089Z,99.99
2017-04-08T03:26:30.299Z,99.99
2017-04-08T03:27:41.503Z,99.99
2017-04-08T03:28:52.549Z,99.99
2017-04-08T03:30:03.548Z,99.99
2017-04-08T03:31:14.550Z,99.99
2017-04-08T03:32:25.537Z,99.99
2017-04-08T03:33:36.552Z,99.99
2017-04-08T03:34:47.611Z,99.99
2017-04-08T03:35:58.823Z,99.99
2017-04-08T03:37:09.823Z,99.99
2017-04-08T03:38:20.825Z,99.99
2017-04-08T03:39:31.812Z,99.99
2017-04-08T03:40:43.470Z,99.99
2017-04-08T03:41:54.484Z,99.99
2017-04-08T03:43:05.483Z,99.99
2017-04-08T03:44:16.478Z,99.99
2017-04-08T03:45:27.482Z,99.99
2017-04-08T03:46:38.542Z,99.99
2017-04-08T03:47:49.552Z,99.99
2017-04-08T03:49:00.545Z,99.99
2017-04-08T03:50:11.549Z,99.99
2017-04-08T03:51:22.564Z,99.99
2017-04-08T03:52:34.016Z,99.99
2017-04-08T03:53:45.025Z,99.99
2017-04-08T03:54:56.050Z,99.99
2017-04-08T03:56:07.466Z,99.99
2017-04-08T03:57:18.507Z,99.99
2017-04-08T03:58:29.762Z,99.99
2017-04-08T03:59:40.974Z,99.99
2017-04-08T04:00:52.182Z,99.99
2017-04-08T04:02:03.396Z,99.99
2017-04-08T04:03:14.405Z,99.99
2017-04-08T04:04:25.870Z,99.99
2017-04-08T04:05:36.860Z,99.99
2017-04-08T04:06:47.862Z,99.99
2017-04-08T04:07:58.865Z,99.99
2017-04-08T04:09:09.880Z,99.99
2017-04-08T04:10:21.129Z,99.99
2017-04-08T04:11:32.330Z,99.99
2017-04-08T04:12:43.326Z,99.99
2017-04-08T04:13:54.526Z,99.99
2017-04-08T04:15:05.522Z,99.99
2017-04-08T04:16:16.580Z,99.99
2017-04-08T04:17:27.590Z,99.99
2017-04-08T04:18:38.589Z,99.99
2017-04-08T04:19:49.601Z,99.99
2017-04-08T04:21:00.595Z,99.99
2017-04-08T04:22:11.635Z,99.99
2017-04-08T04:23:22.650Z,99.99
2017-04-08T04:24:33.666Z,99.99
2017-04-08T04:25:44.663Z,99.99
2017-04-08T04:26:55.668Z,99.99
2017-04-08T04:28:06.719Z,99.99
2017-04-08T04:29:17.723Z,99.99
2017-04-08T04:30:28.727Z,99.99
2017-04-08T04:31:39.733Z,99.99
2017-04-08T04:32:50.941Z,99.99
2017-04-08T04:34:02.196Z,99.99
2017-04-08T04:35:13.198Z,99.99
2017-04-08T04:36:24.217Z,99.99
2017-04-08T04:37:35.217Z,99.99
2017-04-08T04:38:46.417Z,99.99
2017-04-08T04:39:57.468Z,99.99
2017-04-08T04:41:08.477Z,99.99
2017-04-08T04:42:19.466Z,99.99
2017-04-08T04:43:30.670Z,99.99
2017-04-08T04:44:41.680Z,99.99
2017-04-08T04:45:52.673Z,99.99
2017-04-08T04:47:03.876Z,99.99
2017-04-08T04:48:14.879Z,99.99
2017-04-08T04:49:25.871Z,99.99
2017-04-08T04:50:37.127Z,99.99
2017-04-08T04:51:48.338Z,99.99
2017-04-08T04:52:59.338Z,99.99
2017-04-08T04:54:10.335Z,99.99
2017-04-08T04:55:21.342Z,99.99
2017-04-08T04:56:32.589Z,99.99
2017-04-08T04:57:43.795Z,99.99
2017-04-08T04:58:54.805Z,99.99
2017-04-08T05:00:05.821Z,99.99
2017-04-08T05:01:16.827Z,99.99
2017-04-08T05:02:28.080Z,99.99
2017-04-08T05:03:39.080Z,99.99
2017-04-08T05:04:50.089Z,99.99
2017-04-08T05:06:01.105Z,99.99
2017-04-08T05:07:12.320Z,99.99
2017-04-08T05:08:23.582Z,99.99
2017-04-08T05:09:34.593Z,99.99
2017-04-08T05:10:45.597Z,99.99
2017-04-08T05:11:56.809Z,99.99
2017-04-08T05:13:07.804Z,99.99
2017-04-08T05:14:18.850Z,99.99
2017-04-08T05:15:30.056Z,99.99
2017-04-08T05:16:41.253Z,99.99
2017-04-08T05:17:52.254Z,99.99
2017-04-08T05:19:03.445Z,99.99
2017-04-08T05:20:14.695Z,99.99
2017-04-08T05:21:25.697Z,99.99
2017-04-08T05:22:36.914Z,99.99
2017-04-08T05:23:47.925Z,99.99
2017-04-08T05:24:58.942Z,99.99
2017-04-08T05:26:10.004Z,99.99
2017-04-08T05:27:21.010Z,99.99
2017-04-08T05:28:32.211Z,99.99
2017-04-08T05:29:43.223Z,99.99
2017-04-08T05:30:54.231Z,99.99
2017-04-08T05:32:05.481Z,99.99
2017-04-08T05:33:16.672Z,99.99
2017-04-08T05:34:27.679Z,99.99
2017-04-08T05:35:38.683Z,99.99
2017-04-08T05:36:49.685Z,99.99
2017-04-08T05:38:00.749Z,99.99
2017-04-08T05:39:11.746Z,99.99
2017-04-08T05:40:22.746Z,99.99
2017-04-08T05:41:33.751Z,99.99
2017-04-08T05:42:44.955Z,99.99
2017-04-08T05:43:56.012Z,99.99
2017-04-08T05:45:07.021Z,99.99
2017-04-08T05:46:18.014Z,99.99
2017-04-08T05:47:29.005Z,99.99
2017-04-08T05:48:40.017Z,99.99
2017-04-08T05:49:51.082Z,99.99
2017-04-08T05:51:02.291Z,99.99
2017-04-08T05:52:13.315Z,99.99
2017-04-08T05:53:24.314Z,99.99
2017-04-08T05:54:35.721Z,99.99
2017-04-08T05:55:46.772Z,99.99
2017-04-08T05:56:57.776Z,99.99
2017-04-08T05:58:08.769Z,99.99
2017-04-08T05:59:19.800Z,99.99
2017-04-08T06:00:30.811Z,99.99
2017-04-08T06:01:41.861Z,99.99
2017-04-08T06:02:52.867Z,99.99
2017-04-08T06:04:03.859Z,99.99
2017-04-08T06:05:14.855Z,99.99
2017-04-08T06:06:25.852Z,99.99
2017-04-08T06:07:36.905Z,99.99
2017-04-08T06:08:48.115Z,99.99
2017-04-08T06:09:59.315Z,99.99
2017-04-08T06:11:10.322Z,99.99
2017-04-08T06:12:21.326Z,99.99
2017-04-08T06:13:32.577Z,99.99
2017-04-08T06:14:43.588Z,99.99
2017-04-08T06:15:54.591Z,99.99
2017-04-08T06:17:05.601Z,99.99
2017-04-08T06:18:16.604Z,99.99
2017-04-08T06:19:27.652Z,99.99
2017-04-08T06:20:38.663Z,99.99
2017-04-08T06:21:49.675Z,99.99
2017-04-08T06:23:01.075Z,99.99
2017-04-08T06:24:12.076Z,99.99
2017-04-08T06:25:23.151Z,99.99
2017-04-08T06:26:34.350Z,99.99
2017-04-08T06:27:45.558Z,99.99
2017-04-08T06:28:56.566Z,99.99
2017-04-08T06:30:07.577Z,99.99
2017-04-08T06:31:18.625Z,99.99
2017-04-08T06:32:30.044Z,99.99
2017-04-08T06:33:41.051Z,99.99
2017-04-08T06:34:52.053Z,99.99
2017-04-08T06:36:03.055Z,99.99
2017-04-08T06:37:14.107Z,99.99
2017-04-08T06:38:25.112Z,99.99
2017-04-08T06:39:36.113Z,99.99
2017-04-08T06:40:47.131Z,99.99
2017-04-08T06:41:58.146Z,99.99
2017-04-08T06:43:09.383Z,99.99
2017-04-08T06:44:20.634Z,99.99
2017-04-08T06:45:31.847Z,99.99
2017-04-08T06:46:42.861Z,99.99
2017-04-08T06:47:54.086Z,99.99
2017-04-08T06:49:05.146Z,99.99
2017-04-08T06:50:16.362Z,99.99
2017-04-08T06:51:27.375Z,99.99
2017-04-08T06:52:38.397Z,99.99
2017-04-08T06:53:49.400Z,99.99
2017-04-08T06:55:00.650Z,99.99
2017-04-08T06:56:11.654Z,99.99
2017-04-08T06:57:22.655Z,99.99
2017-04-08T06:58:33.666Z,99.99
2017-04-08T06:59:44.670Z,99.99
2017-04-08T07:00:55.680Z,99.99
2017-04-08T07:02:06.892Z,99.99
2017-04-08T07:03:17.886Z,99.99
2017-04-08T07:04:28.906Z,99.99
2017-04-08T07:05:40.169Z,99.99
2017-04-08T07:06:51.381Z,99.99
2017-04-08T07:08:02.376Z,99.99
2017-04-08T07:09:13.390Z,99.99
2017-04-08T07:10:24.399Z,99.99
2017-04-08T07:11:35.468Z,99.99
2017-04-08T07:12:46.472Z,99.99
2017-04-08T07:13:57.671Z,99.99
2017-04-08T07:15:08.681Z,99.99
2017-04-08T07:16:19.681Z,99.99
2017-04-08T07:17:31.124Z,99.99
2017-04-08T07:18:42.134Z,99.99
2017-04-08T07:19:53.141Z,99.99
2017-04-08T07:21:04.141Z,99.99
2017-04-08T07:22:15.350Z,99.99
2017-04-08T07:23:26.399Z,99.99
2017-04-08T07:24:37.384Z,99.99
2017-04-08T07:25:48.393Z,99.99
2017-04-08T07:26:59.411Z,99.99
2017-04-08T07:28:10.631Z,99.99
2017-04-08T07:29:21.893Z,99.99
2017-04-08T07:30:32.898Z,99.99
2017-04-08T07:31:43.891Z,99.99
2017-04-08T07:32:54.883Z,99.99
2017-04-08T07:34:05.902Z,99.99
2017-04-08T07:35:16.961Z,99.99
2017-04-08T07:36:27.984Z,99.99
2017-04-08T07:37:39.184Z,99.99
2017-04-08T07:38:50.383Z,99.99
2017-04-08T07:40:01.385Z,99.99
2017-04-08T07:41:12.439Z,99.99
2017-04-08T07:42:23.443Z,99.99
2017-04-08T07:43:34.455Z,99.99
2017-04-08T07:44:45.456Z,99.99
2017-04-08T07:45:56.461Z,99.99
2017-04-08T07:47:07.520Z,99.99
2017-04-08T07:48:18.519Z,99.99
2017-04-08T07:49:29.522Z,99.42
2017-04-08T07:50:40.724Z,97.71
2017-04-08T07:51:51.722Z,98.08
2017-04-08T07:53:02.777Z,99.99
2017-04-08T07:54:13.816Z,99.99
2017-04-08T07:55:24.820Z,99.71
2017-04-08T07:56:35.831Z,98.37
2017-04-08T07:57:46.840Z,96.08
2017-04-08T07:58:58.098Z,97.89
2017-04-08T08:00:09.109Z,97.03
2017-04-08T08:01:20.111Z,97.32
2017-04-08T08:02:31.327Z,99.04
2017-04-08T08:03:42.536Z,99.61
2017-04-08T08:04:53.798Z,99.9
2017-04-08T08:06:04.796Z,99.71
2017-04-08T08:07:16.005Z,98.85
2017-04-08T08:08:27.010Z,99.32
2017-04-08T08:09:38.227Z,96.75
2017-04-08T08:10:49.478Z,96.22
2017-04-08T08:12:00.497Z,96.51
2017-04-08T08:13:11.512Z,96.42
2017-04-08T08:14:22.714Z,97.66
2017-04-08T08:15:33.712Z,98.32
2017-04-08T08:16:44.767Z,98.71
2017-04-08T08:17:55.778Z,96.42
2017-04-08T08:19:06.779Z,96.89
2017-04-08T08:20:17.970Z,97.52
2017-04-08T08:21:28.974Z,94.98
2017-04-08T08:22:40.026Z,93.41
2017-04-08T08:23:51.015Z,92.07
2017-04-08T08:25:02.244Z,92.36
2017-04-08T08:26:13.254Z,90.92
2017-04-08T08:27:24.293Z,90.54
2017-04-08T08:28:35.563Z,92.93
2017-04-08T08:29:46.571Z,93.17
2017-04-08T08:30:57.580Z,91.93
2017-04-08T08:32:08.588Z,90.35
2017-04-08T08:33:19.586Z,90.83
2017-04-08T08:34:30.639Z,90.54
2017-04-08T08:35:41.633Z,91.69
2017-04-08T08:36:52.632Z,90.45
2017-04-08T08:38:03.635Z,92.02
2017-04-08T08:39:14.650Z,90.39
2017-04-08T08:40:25.910Z,90.01
2017-04-08T08:41:36.912Z,88.96
2017-04-08T08:42:47.929Z,88.29
2017-04-08T08:43:59.163Z,85.81
2017-04-08T08:45:10.378Z,85.05
2017-04-08T08:46:21.436Z,85.81
2017-04-08T08:47:32.440Z,85.9
2017-04-08T08:48:43.464Z,85.14
2017-04-08T08:49:54.470Z,85.71
2017-04-08T08:51:05.484Z,85.71
2017-04-08T08:52:16.744Z,84.95
2017-04-08T08:53:27.759Z,84.85
2017-04-08T08:54:38.771Z,84.23
2017-04-08T08:55:50.187Z,83.75
2017-04-08T08:57:01.395Z,83.94
2017-04-08T08:58:12.668Z,84.38
2017-04-08T08:59:23.887Z,84.38
2017-04-08T09:00:35.098Z,84.56
2017-04-08T09:01:46.305Z,84.85
2017-04-08T09:02:57.318Z,84.89
2017-04-08T09:04:08.783Z,84.23
2017-04-08T09:05:19.798Z,84.23
2017-04-08T09:06:30.806Z,84.13
2017-04-08T09:07:41.814Z,83.75
2017-04-08T09:08:52.826Z,81.74
2017-04-08T09:10:03.886Z,80.88
2017-04-08T09:11:15.106Z,80.44
2017-04-08T09:12:26.111Z,79.68
2017-04-08T09:13:37.125Z,78.91
2017-04-08T09:14:48.142Z,78.81
2017-04-08T09:15:59.151Z,79.49
2017-04-08T09:17:10.356Z,80.25
2017-04-08T09:18:21.369Z,79.87
2017-04-08T09:19:32.374Z,79.49
2017-04-08T09:20:43.638Z,79.96
2017-04-08T09:21:54.660Z,79
2017-04-08T09:23:05.677Z,77.48
2017-04-08T09:24:16.682Z,78.19
2017-04-08T09:25:27.682Z,78.19
2017-04-08T09:26:38.944Z,78.28
2017-04-08T09:27:50.153Z,77.33
2017-04-08T09:29:01.367Z,77.23
2017-04-08T09:30:12.388Z,75.12
2017-04-08T09:31:23.415Z,75.51
2017-04-08T09:32:34.475Z,76.27
2017-04-08T09:33:45.489Z,76.75
2017-04-08T09:34:56.511Z,76.18
2017-04-08T09:36:07.536Z,76.84
2017-04-08T09:37:18.541Z,78.24
2017-04-08T09:38:29.796Z,77.13
2017-04-08T09:39:41.003Z,76.65
2017-04-08T09:40:52.019Z,77.7
2017-04-08T09:42:03.042Z,76.84
2017-04-08T09:43:14.054Z,76.75
2017-04-08T09:44:25.120Z,76.31
2017-04-08T09:45:36.141Z,75.35
2017-04-08T09:46:47.170Z,75.7
2017-04-08T09:47:58.179Z,74.77
2017-04-08T09:49:09.190Z,74.2
2017-04-08T09:50:20.517Z,74.36
2017-04-08T09:51:31.523Z,75.31
2017-04-08T09:52:42.533Z,75.31
2017-04-08T09:53:53.548Z,76.46
2017-04-08T09:55:04.554Z,76.84
2017-04-08T09:56:16.042Z,77.7
2017-04-08T09:57:27.059Z,76.75
2017-04-08T09:58:38.075Z,75.89
2017-04-08T09:59:49.292Z,75.89
2017-04-08T10:01:00.297Z,75.31
2017-04-08T10:02:11.352Z,75.35
2017-04-08T10:03:22.356Z,74.74
2017-04-08T10:04:33.376Z,74.26
2017-04-08T10:05:44.388Z,75.22
2017-04-08T10:06:55.398Z,75.79
2017-04-08T10:08:06.650Z,74.36
2017-04-08T10:09:17.651Z,74.16
2017-04-08T10:10:28.664Z,74.55
2017-04-08T10:11:39.675Z,74.16
2017-04-08T10:12:50.677Z,74.93
2017-04-08T10:14:01.733Z,73.3
2017-04-08T10:15:12.981Z,72.16
2017-04-08T10:16:23.997Z,73.79
2017-04-08T10:17:35.002Z,73.3
2017-04-08T10:18:46.201Z,74.16
2017-04-08T10:19:57.261Z,74.84
2017-04-08T10:21:08.277Z,74.74
2017-04-08T10:22:19.496Z,73.88
2017-04-08T10:23:30.524Z,72.25
2017-04-08T10:24:41.754Z,72.34
2017-04-08T10:25:53.427Z,74.07
2017-04-08T10:27:04.445Z,72.44
2017-04-08T10:28:15.457Z,73.4
2017-04-08T10:29:26.693Z,74.45
2017-04-08T10:30:37.911Z,75.22
2017-04-08T10:31:49.166Z,76.46
2017-04-08T10:33:00.169Z,73.3
2017-04-08T10:34:11.379Z,73.79
2017-04-08T10:35:22.776Z,74.36
2017-04-08T10:36:33.777Z,74.36
2017-04-08T10:37:45.241Z,75.12
2017-04-08T10:38:56.452Z,74.65
2017-04-08T10:40:07.468Z,74.55
2017-04-08T10:41:18.490Z,75.6
2017-04-08T10:42:29.488Z,75.7
2017-04-08T10:43:40.558Z,74.16
2017-04-08T10:44:51.578Z,74.65
2017-04-08T10:46:02.583Z,74.11
2017-04-08T10:47:13.795Z,73.34
2017-04-08T10:48:24.807Z,73.63
2017-04-08T10:49:36.067Z,74.4
2017-04-08T10:50:47.289Z,73.44
2017-04-08T10:51:58.290Z,72.61
2017-04-08T10:53:09.308Z,71.37
2017-04-08T10:54:20.312Z,71.56
2017-04-08T10:55:31.367Z,71.37
2017-04-08T10:56:42.394Z,71.37
2017-04-08T10:57:53.397Z,71.94
2017-04-08T10:59:04.396Z,70.41
2017-04-08T11:00:15.448Z,70.5
2017-04-08T11:01:26.508Z,71.66
2017-04-08T11:02:37.521Z,71.08
2017-04-08T11:03:48.740Z,71.75
2017-04-08T11:04:59.757Z,72.23
2017-04-08T11:06:10.971Z,72.32
2017-04-08T11:07:22.632Z,71.78
2017-04-08T11:08:33.650Z,70.44
2017-04-08T11:09:44.671Z,71.5
2017-04-08T11:10:55.692Z,69.68
2017-04-08T11:12:06.705Z,69.29
2017-04-08T11:13:17.774Z,70.83
2017-04-08T11:14:28.793Z,69.77
2017-04-08T11:15:39.800Z,71.11
2017-04-08T11:16:50.818Z,71.59
2017-04-08T11:18:02.025Z,71.21
2017-04-08T11:19:13.295Z,72.27
2017-04-08T11:20:24.713Z,68.95
2017-04-08T11:21:35.722Z,68.37
2017-04-08T11:22:46.737Z,67.69
2017-04-08T11:23:57.756Z,66.83
2017-04-08T11:25:08.830Z,69.01
2017-04-08T11:26:19.845Z,70.83
2017-04-08T11:27:30.867Z,70.06
2017-04-08T11:28:41.893Z,68.72
2017-04-08T11:29:52.912Z,67.5
2017-04-08T11:31:04.175Z,68.08
2017-04-08T11:32:15.193Z,69.33
2017-04-08T11:33:26.215Z,68.18
2017-04-08T11:34:37.428Z,68.37
2017-04-08T11:35:48.452Z,69.48
2017-04-08T11:36:59.727Z,71.02
2017-04-08T11:38:10.736Z,68.24
2017-04-08T11:39:21.762Z,69.58
2017-04-08T11:40:32.796Z,70.73
2017-04-08T11:41:43.803Z,69.48
2017-04-08T11:42:54.866Z,71.02
2017-04-08T11:44:05.884Z,70.64
2017-04-08T11:45:16.894Z,69.01
2017-04-08T11:46:27.898Z,70.73
2017-04-08T11:47:38.898Z,71.66
2017-04-08T11:48:50.153Z,70.54
2017-04-08T11:50:01.159Z,71.21
2017-04-08T11:51:12.383Z,69.77
2017-04-08T11:52:23.401Z,71.21
2017-04-08T11:53:34.614Z,69.29
2017-04-08T11:54:45.669Z,69.77
2017-04-08T11:55:56.689Z,69.96
2017-04-08T11:57:07.705Z,71.78
2017-04-08T11:58:18.720Z,68.85
2017-04-08T11:59:29.714Z,69.42
2017-04-08T12:00:40.723Z,68.81
2017-04-08T12:01:51.936Z,69.2
2017-04-08T12:03:02.949Z,66.42
2017-04-08T12:04:13.962Z,66.99
2017-04-08T12:05:25.220Z,68.24
2017-04-08T12:06:36.439Z,69.39
2017-04-08T12:07:47.448Z,69.62
2017-04-08T12:08:58.674Z,67.12
2017-04-08T12:10:09.894Z,66.86
2017-04-08T12:11:20.953Z,67.06
2017-04-08T12:12:31.967Z,65.91
2017-04-08T12:13:42.973Z,63.79
2017-04-08T12:14:54.188Z,63.35
2017-04-08T12:16:05.203Z,65.62
2017-04-08T12:17:16.674Z,64.37
2017-04-08T12:18:27.688Z,64.85
2017-04-08T12:19:38.705Z,65.49
2017-04-08T12:20:49.915Z,65.2
2017-04-08T12:22:00.933Z,65.49
2017-04-08T12:23:12.197Z,66.74
2017-04-08T12:24:23.414Z,66.35
2017-04-08T12:25:34.434Z,66.55
2017-04-08T12:26:45.448Z,66.26
2017-04-08T12:27:56.459Z,66.16
2017-04-08T12:29:07.523Z,67.89
2017-04-08T12:30:18.531Z,66.16
2017-04-08T12:31:29.753Z,68.18
2017-04-08T12:32:40.757Z,69.13
2017-04-08T12:33:51.788Z,67.02
2017-04-08T12:35:03.065Z,64.89
2017-04-08T12:36:14.481Z,65.08
2017-04-08T12:37:25.490Z,66.8
2017-04-08T12:38:36.502Z,67.47
2017-04-08T12:39:47.514Z,68.24
2017-04-08T12:40:58.580Z,66.8
2017-04-08T12:42:09.609Z,68.95
2017-04-08T12:43:20.618Z,65.88
2017-04-08T12:44:31.830Z,66.16
2017-04-08T12:45:42.844Z,65.88
2017-04-08T12:46:54.313Z,65.72
2017-04-08T12:48:05.338Z,68.02
2017-04-08T12:49:16.361Z,68.79
2017-04-08T12:50:27.370Z,66.96
2017-04-08T12:51:38.379Z,65.62
2017-04-08T12:52:49.433Z,64.37
2017-04-08T12:54:00.442Z,64.85
2017-04-08T12:55:11.469Z,65.33
2017-04-08T12:56:22.473Z,63.99
2017-04-08T12:57:33.505Z,64.09
2017-04-08T12:58:44.767Z,64.76
2017-04-08T12:59:55.798Z,63.45
2017-04-08T13:01:06.805Z,64.76
2017-04-08T13:02:17.831Z,62.01
2017-04-08T13:03:29.033Z,62.74
2017-04-08T13:04:40.115Z,64.95
2017-04-08T13:05:51.325Z,64.95
2017-04-08T13:07:02.336Z,63.7
2017-04-08T13:08:13.360Z,63.99
2017-04-08T13:09:24.578Z,64.47
2017-04-08T13:10:35.843Z,65.52
2017-04-08T13:11:46.857Z,65.2
2017-04-08T13:12:57.865Z,64.15
2017-04-08T13:14:08.876Z,64.34
2017-04-08T13:15:20.096Z,67.22
2017-04-08T13:16:31.161Z,65.39
2017-04-08T13:17:42.581Z,63.38
2017-04-08T13:18:53.828Z,63.67
2017-04-08T13:20:04.848Z,64.76
2017-04-08T13:21:15.861Z,65.14
2017-04-08T13:22:27.328Z,63.6
2017-04-08T13:23:38.341Z,63.51
2017-04-08T13:24:49.556Z,65.14
2017-04-08T13:26:00.575Z,63.19
2017-04-08T13:27:11.577Z,62.71
2017-04-08T13:28:22.649Z,63.99
2017-04-08T13:29:33.676Z,62.93
2017-04-08T13:30:44.697Z,66.67
2017-04-08T13:31:55.909Z,67.6
2017-04-08T13:33:06.920Z,67.89
2017-04-08T13:34:17.981Z,67.69
2017-04-08T13:35:28.986Z,69.04
2017-04-08T13:36:39.989Z,68.85
2017-04-08T13:37:51.192Z,67.79
2017-04-08T13:39:02.209Z,65.68
2017-04-08T13:40:13.282Z,64.72
2017-04-08T13:41:24.292Z,63.48
2017-04-08T13:42:35.308Z,65.11
2017-04-08T13:43:46.524Z,64.34
2017-04-08T13:44:57.533Z,65.11
2017-04-08T13:46:08.807Z,65.88
2017-04-08T13:47:20.021Z,64.72
2017-04-08T13:48:31.038Z,63.57
2017-04-08T13:49:42.045Z,63.79
2017-04-08T13:50:53.056Z,65.11
2017-04-08T13:52:04.117Z,65.14
2017-04-08T13:53:15.132Z,65.05
2017-04-08T13:54:26.156Z,62.84
2017-04-08T13:55:37.385Z,63.79
2017-04-08T13:56:48.393Z,66.77
2017-04-08T13:57:59.654Z,63.89
2017-04-08T13:59:10.875Z,65.91
2017-04-08T14:00:21.887Z,65.36
2017-04-08T14:01:32.892Z,66.23
2017-04-08T14:02:44.113Z,65.94
2017-04-08T14:03:55.178Z,64.28
2017-04-08T14:05:06.393Z,66
2017-04-08T14:06:17.603Z,63.12
2017-04-08T14:07:28.825Z,62.16
2017-04-08T14:08:39.852Z,61.3
2017-04-08T14:09:51.120Z,60.25
2017-04-08T14:11:02.123Z,61.88
2017-04-08T14:12:13.534Z,62.36
2017-04-08T14:13:24.733Z,62.74
2017-04-08T14:14:35.745Z,60.35
2017-04-08T14:15:46.770Z,61.21
2017-04-08T14:16:57.795Z,63.42
2017-04-08T14:18:09.019Z,64.09
2017-04-08T14:19:20.065Z,63.99
2017-04-08T14:20:31.535Z,63.51
2017-04-08T14:21:42.557Z,61.4
2017-04-08T14:22:53.568Z,66.06
2017-04-08T14:24:04.587Z,66.1
2017-04-08T14:25:15.592Z,62.07
2017-04-08T14:26:26.811Z,63.99
2017-04-08T14:27:37.822Z,63.19
2017-04-08T14:28:48.833Z,65.59
2017-04-08T14:29:59.843Z,66
2017-04-08T14:31:10.855Z,66.29
2017-04-08T14:32:22.316Z,67.02
2017-04-08T14:33:33.323Z,70.48
2017-04-08T14:34:44.343Z,69.62
2017-04-08T14:35:55.360Z,69.23
2017-04-08T14:37:06.382Z,65.43
2017-04-08T14:38:17.648Z,64.72
2017-04-08T14:39:28.661Z,65.97
2017-04-08T14:40:39.669Z,65.23
2017-04-08T14:41:50.684Z,64.37
2017-04-08T14:43:01.695Z,63.42
2017-04-08T14:44:12.764Z,65.05
2017-04-08T14:45:23.789Z,64.47
2017-04-08T14:46:34.809Z,64.37
2017-04-08T14:47:45.817Z,65.88
2017-04-08T14:48:56.828Z,66.19
2017-04-08T14:50:08.096Z,66.35
2017-04-08T14:51:19.111Z,68.75
2017-04-08T14:52:30.320Z,66.16
2017-04-08T14:53:41.360Z,66.83
2017-04-08T14:54:52.565Z,65.88
2017-04-08T14:56:03.816Z,64.34
2017-04-08T14:57:14.832Z,63.96
2017-04-08T14:58:26.240Z,62.81
2017-04-08T14:59:37.261Z,62.71
2017-04-08T15:00:48.655Z,64.92
2017-04-08T15:01:59.726Z,64.72
2017-04-08T15:03:10.940Z,65.2
2017-04-08T15:04:21.958Z,63.09
2017-04-08T15:05:32.987Z,62.81
2017-04-08T15:06:44.005Z,65.01
2017-04-08T15:07:55.269Z,63
2017-04-08T15:09:06.481Z,62.59
2017-04-08T15:10:17.499Z,66.03
2017-04-08T15:11:28.504Z,69.39
2017-04-08T15:12:39.515Z,65.55
2017-04-08T15:13:50.570Z,66.03
2017-04-08T15:15:01.574Z,68.81
2017-04-08T15:16:12.787Z,67.85